sensor_id;sensor_type;location;lat;lon;timestamp;P1;durP1;ratioP1;P2;durP2;ratioP2
34204;SDS011;20471;49.680;20.074;2023-07-13T00:13:01;15.80;;;12.20;;
34204;SDS011;20471;49.680;20.074;2023-07-13T00:51:36;8.60;;;7.70;;
34204;SDS011;20471;49.680;20.074;2023-07-13T04:30:55;11.40;;;8.00;;
34204;SDS011;20471;49.680;20.074;2023-07-13T04:33:37;9.70;;;5.50;;
34204;SDS011;20471;49.680;20.074;2023-07-13T04:36:20;10.80;;;7.00;;
34204;SDS011;20471;49.680;20.074;2023-07-13T04:39:00;10.00;;;6.70;;
34204;SDS011;20471;49.680;20.074;2023-07-13T04:41:43;9.50;;;7.10;;
34204;SDS011;20471;49.680;20.074;2023-07-13T04:47:06;10.00;;;6.70;;
34204;SDS011;20471;49.680;20.074;2023-07-13T04:49:48;9.30;;;6.20;;
34204;SDS011;20471;49.680;20.074;2023-07-13T04:52:30;6.40;;;5.80;;
34204;SDS011;20471;49.680;20.074;2023-07-13T04:55:13;12.90;;;6.20;;
34204;SDS011;20471;49.680;20.074;2023-07-13T04:57:55;6.90;;;6.20;;
34204;SDS011;20471;49.680;20.074;2023-07-13T05:00:38;8.60;;;6.10;;
34204;SDS011;20471;49.680;20.074;2023-07-13T05:03:06;7.40;;;6.30;;
34204;SDS011;20471;49.680;20.074;2023-07-13T05:05:34;7.20;;;6.50;;
34204;SDS011;20471;49.680;20.074;2023-07-13T05:08:02;11.60;;;7.20;;
34204;SDS011;20471;49.680;20.074;2023-07-13T07:05:45;8.60;;;6.20;;
34204;SDS011;20471;49.680;20.074;2023-07-13T07:08:11;9.30;;;5.90;;
34204;SDS011;20471;49.680;20.074;2023-07-13T07:10:36;7.20;;;5.90;;
34204;SDS011;20471;49.680;20.074;2023-07-13T07:13:02;7.00;;;6.10;;
34204;SDS011;20471;49.680;20.074;2023-07-13T07:15:28;7.90;;;5.90;;
34204;SDS011;20471;49.680;20.074;2023-07-13T07:17:54;9.00;;;6.00;;
34204;SDS011;20471;49.680;20.074;2023-07-13T07:20:19;8.10;;;6.10;;
34204;SDS011;20471;49.680;20.074;2023-07-13T07:22:44;9.80;;;5.70;;
34204;SDS011;20471;49.680;20.074;2023-07-13T07:25:10;6.20;;;5.60;;
34204;SDS011;20471;49.680;20.074;2023-07-13T07:27:37;7.00;;;5.50;;
34204;SDS011;20471;49.680;20.074;2023-07-13T07:30:02;7.50;;;6.10;;
34204;SDS011;20471;49.680;20.074;2023-07-13T07:32:29;7.80;;;5.50;;
34204;SDS011;20471;49.680;20.074;2023-07-13T11:16:36;4.00;;;3.60;;
34204;SDS011;20471;49.680;20.074;2023-07-13T12:15:45;5.00;;;3.80;;
34204;SDS011;20471;49.680;20.074;2023-07-13T12:18:33;6.00;;;4.30;;
34204;SDS011;20471;49.680;20.074;2023-07-13T12:21:01;6.50;;;4.30;;
34204;SDS011;20471;49.680;20.074;2023-07-13T12:23:31;6.00;;;4.60;;
34204;SDS011;20471;49.680;20.074;2023-07-13T12:26:02;7.00;;;4.60;;
34204;SDS011;20471;49.680;20.074;2023-07-13T12:28:48;7.50;;;4.50;;
34204;SDS011;20471;49.680;20.074;2023-07-13T12:31:25;6.70;;;4.40;;
34204;SDS011;20471;49.680;20.074;2023-07-13T12:33:58;5.00;;;4.10;;
34204;SDS011;20471;49.680;20.074;2023-07-13T12:36:38;4.20;;;3.30;;
34204;SDS011;20471;49.680;20.074;2023-07-13T12:39:14;3.00;;;2.70;;
34204;SDS011;20471;49.680;20.074;2023-07-13T12:41:46;5.80;;;2.40;;
34204;SDS011;20471;49.680;20.074;2023-07-13T12:44:27;3.10;;;2.00;;
34204;SDS011;20471;49.680;20.074;2023-07-13T14:36:48;2.60;;;2.10;;
34204;SDS011;20471;49.680;20.074;2023-07-13T14:42:21;2.40;;;1.70;;
34204;SDS011;20471;49.680;20.074;2023-07-13T14:44:48;2.60;;;2.20;;
34204;SDS011;20471;49.680;20.074;2023-07-13T14:47:16;2.40;;;1.80;;
34204;SDS011;20471;49.680;20.074;2023-07-13T14:49:45;3.00;;;2.00;;
34204;SDS011;20471;49.680;20.074;2023-07-13T14:52:18;2.10;;;1.90;;
34204;SDS011;20471;49.680;20.074;2023-07-13T14:54:47;2.20;;;1.90;;
34204;SDS011;20471;49.680;20.074;2023-07-13T14:57:16;3.00;;;1.70;;
34204;SDS011;20471;49.680;20.074;2023-07-13T14:59:46;3.10;;;2.00;;
34204;SDS011;20471;49.680;20.074;2023-07-13T15:02:26;1.80;;;1.70;;
34204;SDS011;20471;49.680;20.074;2023-07-13T15:04:56;2.50;;;2.00;;
34204;SDS011;20471;49.680;20.074;2023-07-13T15:07:25;2.90;;;1.90;;
34204;SDS011;20471;49.680;20.074;2023-07-13T15:09:52;2.50;;;2.00;;
34204;SDS011;20471;49.680;20.074;2023-07-13T15:12:20;3.80;;;2.20;;
34204;SDS011;20471;49.680;20.074;2023-07-13T15:14:48;3.50;;;2.00;;
34204;SDS011;20471;49.680;20.074;2023-07-13T15:17:33;4.70;;;2.40;;
34204;SDS011;20471;49.680;20.074;2023-07-13T15:22:56;2.70;;;2.00;;
34204;SDS011;20471;49.680;20.074;2023-07-13T15:25:26;3.50;;;2.40;;
34204;SDS011;20471;49.680;20.074;2023-07-13T15:27:56;4.40;;;2.70;;
34204;SDS011;20471;49.680;20.074;2023-07-13T15:30:26;2.80;;;2.50;;
34204;SDS011;20471;49.680;20.074;2023-07-13T15:32:56;4.20;;;2.50;;
34204;SDS011;20471;49.680;20.074;2023-07-13T15:35:28;4.90;;;2.70;;
34204;SDS011;20471;49.680;20.074;2023-07-13T15:37:56;3.20;;;2.60;;
34204;SDS011;20471;49.680;20.074;2023-07-13T15:40:24;2.80;;;2.50;;
34204;SDS011;20471;49.680;20.074;2023-07-13T15:42:52;3.00;;;2.40;;
34204;SDS011;20471;49.680;20.074;2023-07-13T15:45:20;3.10;;;2.30;;
34204;SDS011;20471;49.680;20.074;2023-07-13T15:47:51;2.40;;;2.00;;
34204;SDS011;20471;49.680;20.074;2023-07-13T15:50:20;4.00;;;2.20;;
34204;SDS011;20471;49.680;20.074;2023-07-13T15:52:54;5.10;;;2.50;;
34204;SDS011;20471;49.680;20.074;2023-07-13T15:55:25;1.90;;;1.80;;
34204;SDS011;20471;49.680;20.074;2023-07-13T15:57:53;2.20;;;2.00;;
34204;SDS011;20471;49.680;20.074;2023-07-13T16:00:26;2.30;;;2.10;;
34204;SDS011;20471;49.680;20.074;2023-07-13T16:02:54;3.40;;;2.20;;
34204;SDS011;20471;49.680;20.074;2023-07-13T16:05:22;2.90;;;2.60;;
34204;SDS011;20471;49.680;20.074;2023-07-13T16:07:51;2.80;;;2.40;;
34204;SDS011;20471;49.680;20.074;2023-07-13T16:10:30;4.60;;;2.10;;
34204;SDS011;20471;49.680;20.074;2023-07-13T16:13:01;2.50;;;2.30;;
34204;SDS011;20471;49.680;20.074;2023-07-13T16:15:31;9.20;;;2.60;;
34204;SDS011;20471;49.680;20.074;2023-07-13T16:38:18;3.30;;;2.00;;
34204;SDS011;20471;49.680;20.074;2023-07-13T16:57:13;2.70;;;2.40;;
34204;SDS011;20471;49.680;20.074;2023-07-13T16:59:45;3.80;;;2.50;;
34204;SDS011;20471;49.680;20.074;2023-07-13T17:02:25;3.80;;;2.50;;
34204;SDS011;20471;49.680;20.074;2023-07-13T17:04:57;4.30;;;2.90;;
34204;SDS011;20471;49.680;20.074;2023-07-13T17:07:25;3.80;;;2.90;;
34204;SDS011;20471;49.680;20.074;2023-07-13T17:09:55;3.20;;;2.60;;
34204;SDS011;20471;49.680;20.074;2023-07-13T17:12:22;5.40;;;2.60;;
34204;SDS011;20471;49.680;20.074;2023-07-13T17:14:51;6.20;;;4.00;;
34204;SDS011;20471;49.680;20.074;2023-07-13T17:17:28;6.00;;;4.30;;
34204;SDS011;20471;49.680;20.074;2023-07-13T17:19:59;6.50;;;3.70;;
34204;SDS011;20471;49.680;20.074;2023-07-13T17:22:29;5.50;;;4.20;;
34204;SDS011;20471;49.680;20.074;2023-07-13T17:24:57;5.70;;;3.80;;
34204;SDS011;20471;49.680;20.074;2023-07-13T17:56:31;4.40;;;3.10;;
34204;SDS011;20471;49.680;20.074;2023-07-13T17:58:56;5.80;;;3.50;;
34204;SDS011;20471;49.680;20.074;2023-07-13T18:01:21;3.90;;;3.00;;
34204;SDS011;20471;49.680;20.074;2023-07-13T18:03:48;4.10;;;3.70;;
34204;SDS011;20471;49.680;20.074;2023-07-13T18:06:17;5.20;;;3.90;;
34204;SDS011;20471;49.680;20.074;2023-07-13T18:08:55;13.10;;;7.60;;
34204;SDS011;20471;49.680;20.074;2023-07-13T18:11:22;20.00;;;12.50;;
34204;SDS011;20471;49.680;20.074;2023-07-13T18:13:48;15.70;;;9.00;;
34204;SDS011;20471;49.680;20.074;2023-07-13T18:16:21;7.60;;;6.00;;
34204;SDS011;20471;49.680;20.074;2023-07-13T18:18:49;6.40;;;4.10;;
34204;SDS011;20471;49.680;20.074;2023-07-13T18:21:15;7.90;;;4.20;;
34204;SDS011;20471;49.680;20.074;2023-07-13T18:23:41;5.30;;;4.30;;
34204;SDS011;20471;49.680;20.074;2023-07-13T18:26:10;7.00;;;4.00;;
34204;SDS011;20471;49.680;20.074;2023-07-13T20:05:28;14.80;;;13.20;;
34204;SDS011;20471;49.680;20.074;2023-07-13T20:08:11;16.20;;;14.10;;
34204;SDS011;20471;49.680;20.074;2023-07-13T20:10:58;16.20;;;14.50;;
34204;SDS011;20471;49.680;20.074;2023-07-13T20:13:38;17.70;;;14.40;;
34204;SDS011;20471;49.680;20.074;2023-07-13T20:16:19;16.40;;;13.30;;
34204;SDS011;20471;49.680;20.074;2023-07-13T20:19:00;19.10;;;14.30;;
34204;SDS011;20471;49.680;20.074;2023-07-13T20:21:40;17.10;;;13.70;;
34204;SDS011;20471;49.680;20.074;2023-07-13T20:24:22;16.70;;;12.10;;
34204;SDS011;20471;49.680;20.074;2023-07-13T20:26:47;15.70;;;12.70;;
34204;SDS011;20471;49.680;20.074;2023-07-13T20:29:13;15.50;;;12.20;;
34204;SDS011;20471;49.680;20.074;2023-07-13T20:31:39;16.50;;;11.90;;
34204;SDS011;20471;49.680;20.074;2023-07-13T21:33:14;14.70;;;10.00;;
34204;SDS011;20471;49.680;20.074;2023-07-13T21:35:57;13.30;;;10.40;;
34204;SDS011;20471;49.680;20.074;2023-07-13T21:38:39;12.80;;;11.30;;
34204;SDS011;20471;49.680;20.074;2023-07-13T23:00:57;9.60;;;8.30;;
34204;SDS011;20471;49.680;20.074;2023-07-13T23:03:26;11.00;;;8.70;;
34204;SDS011;20471;49.680;20.074;2023-07-13T23:05:54;9.00;;;8.00;;
34204;SDS011;20471;49.680;20.074;2023-07-13T23:08:20;9.60;;;7.90;;
34204;SDS011;20471;49.680;20.074;2023-07-13T23:10:46;10.90;;;6.70;;
34204;SDS011;20471;49.680;20.074;2023-07-13T23:13:13;12.20;;;7.30;;
34204;SDS011;20471;49.680;20.074;2023-07-13T23:15:39;8.80;;;6.60;;
34204;SDS011;20471;49.680;20.074;2023-07-13T23:18:05;9.70;;;7.60;;
34204;SDS011;20471;49.680;20.074;2023-07-13T23:20:35;8.80;;;7.70;;
34204;SDS011;20471;49.680;20.074;2023-07-13T23:23:01;13.80;;;8.00;;
34204;SDS011;20471;49.680;20.074;2023-07-13T23:25:28;15.20;;;8.50;;
34204;SDS011;20471;49.680;20.074;2023-07-13T23:28:10;10.90;;;8.00;;
34204;SDS011;20471;49.680;20.074;2023-07-13T23:30:51;10.70;;;7.40;;
34204;SDS011;20471;49.680;20.074;2023-07-13T23:33:34;14.20;;;8.30;;
34204;SDS011;20471;49.680;20.074;2023-07-13T23:36:02;10.30;;;8.70;;
34204;SDS011;20471;49.680;20.074;2023-07-13T23:38:29;11.10;;;9.30;;
34204;SDS011;20471;49.680;20.074;2023-07-13T23:40:57;12.20;;;8.70;;
34204;SDS011;20471;49.680;20.074;2023-07-13T23:43:25;9.80;;;8.80;;
34204;SDS011;20471;49.680;20.074;2023-07-13T23:45:52;11.30;;;8.20;;
34204;SDS011;20471;49.680;20.074;2023-07-13T23:48:20;11.50;;;7.80;;
34204;SDS011;20471;49.680;20.074;2023-07-13T23:50:48;8.70;;;7.70;;
34204;SDS011;20471;49.680;20.074;2023-07-13T23:53:18;8.80;;;6.60;;
34204;SDS011;20471;49.680;20.074;2023-07-13T23:55:45;9.50;;;7.60;;
